createdAt,value
2022-11-30T00:00:58.539Z,6.07
2022-11-30T00:03:44.501Z,6.85
2022-11-30T00:06:30.619Z,6.57
2022-11-30T00:09:16.363Z,6.53
2022-11-30T00:12:01.764Z,6.45
2022-11-30T00:14:47.648Z,6.53
2022-11-30T00:17:33.600Z,6.97
2022-11-30T00:20:18.981Z,6.07
2022-11-30T00:23:05.124Z,6.43
2022-11-30T00:25:50.761Z,6.55
2022-11-30T00:28:37.580Z,6.80
2022-11-30T00:31:24.951Z,6.80
2022-11-30T00:34:10.564Z,7.05
2022-11-30T00:36:56.104Z,7.50
2022-11-30T00:39:41.781Z,7.05
2022-11-30T00:42:27.010Z,6.57
2022-11-30T00:45:12.728Z,6.65
2022-11-30T00:47:58.214Z,6.40
2022-11-30T00:50:43.865Z,7.10
2022-11-30T00:53:29.243Z,7.32
2022-11-30T00:56:15.055Z,7.05
2022-11-30T00:59:01.222Z,6.90
2022-11-30T01:01:46.853Z,6.70
2022-11-30T01:04:32.252Z,7.05
2022-11-30T01:07:17.800Z,7.15
2022-11-30T01:10:03.656Z,6.53
2022-11-30T01:12:49.857Z,6.35
2022-11-30T01:15:41.439Z,6.72
2022-11-30T01:18:27.149Z,6.70
2022-11-30T01:21:16.372Z,6.80
2022-11-30T01:24:02.170Z,7.05
2022-11-30T01:26:47.946Z,7.88
2022-11-30T01:29:33.482Z,6.95
2022-11-30T01:32:19.092Z,6.65
2022-11-30T01:35:04.883Z,7.40
2022-11-30T01:37:50.154Z,6.57
2022-11-30T01:40:35.716Z,6.97
2022-11-30T01:43:21.268Z,6.80
2022-11-30T01:46:19.902Z,7.05
2022-11-30T01:49:16.037Z,6.65
2022-11-30T01:52:07.541Z,6.60
2022-11-30T01:55:11.827Z,7.35
2022-11-30T01:58:11.601Z,7.10
2022-11-30T02:00:57.609Z,7.28
2022-11-30T02:03:54.145Z,6.70
2022-11-30T02:06:39.814Z,6.45
2022-11-30T02:09:27.336Z,7.45
2022-11-30T02:12:32.343Z,6.85
2022-11-30T02:15:22.825Z,7.10
2022-11-30T02:18:14.888Z,7.32
2022-11-30T02:21:22.816Z,8.48
2022-11-30T02:24:14.240Z,9.02
2022-11-30T02:27:23.241Z,9.15
2022-11-30T02:30:16.381Z,9.07
2022-11-30T02:33:08.864Z,7.68
2022-11-30T02:35:55.655Z,8.02
2022-11-30T02:38:42.095Z,7.28
2022-11-30T02:41:37.858Z,6.10
2022-11-30T02:44:24.625Z,6.82
2022-11-30T02:47:13.462Z,7.03
2022-11-30T02:50:08.775Z,7.63
2022-11-30T02:52:55.099Z,6.95
2022-11-30T02:55:41.117Z,6.72
2022-11-30T02:58:27.268Z,6.30
2022-11-30T03:01:12.832Z,6.63
2022-11-30T03:03:58.351Z,7.13
2022-11-30T03:06:43.744Z,6.70
2022-11-30T03:09:29.343Z,7.30
2022-11-30T03:12:15.032Z,7.05
2022-11-30T03:15:01.139Z,7.78
2022-11-30T03:17:46.734Z,7.53
2022-11-30T03:20:32.232Z,7.80
2022-11-30T03:23:17.795Z,9.20
2022-11-30T03:26:05.223Z,7.82
2022-11-30T03:28:50.578Z,7.35
2022-11-30T03:31:36.284Z,6.38
2022-11-30T03:34:22.603Z,6.70
2022-11-30T03:37:08.053Z,6.63
2022-11-30T03:39:58.108Z,6.97
2022-11-30T03:42:44.293Z,6.97
2022-11-30T03:45:29.950Z,6.60
2022-11-30T03:48:15.281Z,7.53
2022-11-30T03:51:00.717Z,7.43
2022-11-30T03:53:46.548Z,6.57
2022-11-30T03:56:32.210Z,6.65
2022-11-30T03:59:17.744Z,6.90
2022-11-30T04:02:03.445Z,7.00
2022-11-30T04:04:49.127Z,7.35
2022-11-30T04:07:35.192Z,7.28
2022-11-30T04:10:21.125Z,7.28
2022-11-30T04:13:06.751Z,7.88
2022-11-30T04:15:53.763Z,7.28
2022-11-30T04:18:39.648Z,7.10
2022-11-30T04:21:24.960Z,6.72
2022-11-30T04:24:10.486Z,6.85
2022-11-30T04:26:55.908Z,7.40
2022-11-30T04:29:41.365Z,8.02
2022-11-30T04:32:26.992Z,8.02
2022-11-30T04:35:12.610Z,8.15
2022-11-30T04:37:58.723Z,7.90
2022-11-30T04:40:44.569Z,7.78
2022-11-30T04:43:30.146Z,8.15
2022-11-30T04:46:15.934Z,7.68
2022-11-30T04:49:01.529Z,8.13
2022-11-30T04:51:47.377Z,8.10
2022-11-30T04:54:32.913Z,7.28
2022-11-30T04:57:18.710Z,7.78
2022-11-30T05:00:05.612Z,8.07
2022-11-30T05:02:53.148Z,7.85
2022-11-30T05:05:38.819Z,7.85
2022-11-30T05:08:24.525Z,6.80
2022-11-30T05:11:10.364Z,7.18
2022-11-30T05:13:56.063Z,7.03
2022-11-30T05:16:41.684Z,6.95
2022-11-30T05:19:27.440Z,7.07
2022-11-30T05:22:13.032Z,6.40
2022-11-30T05:24:58.548Z,7.28
2022-11-30T05:27:44.140Z,6.65
2022-11-30T05:30:29.776Z,6.00
2022-11-30T05:33:15.781Z,6.05
2022-11-30T05:36:10.177Z,6.95
2022-11-30T05:38:55.924Z,6.90
2022-11-30T05:41:41.538Z,6.68
2022-11-30T05:44:26.988Z,8.23
2022-11-30T05:47:12.719Z,7.47
2022-11-30T05:49:58.231Z,7.75
2022-11-30T05:52:43.967Z,6.90
2022-11-30T05:55:29.813Z,7.38
2022-11-30T05:58:15.713Z,6.72
2022-11-30T06:01:01.915Z,7.00
2022-11-30T06:03:47.768Z,7.95
2022-11-30T06:06:33.828Z,6.28
2022-11-30T06:09:19.639Z,6.82
2022-11-30T06:12:05.491Z,7.35
2022-11-30T06:14:51.147Z,6.32
2022-11-30T06:17:39.707Z,6.68
2022-11-30T06:20:25.030Z,7.55
2022-11-30T06:23:10.549Z,6.75
2022-11-30T06:25:56.185Z,6.80
2022-11-30T06:28:47.671Z,6.20
2022-11-30T06:31:33.839Z,6.28
2022-11-30T06:34:19.512Z,6.78
2022-11-30T06:37:05.636Z,6.75
2022-11-30T06:40:05.830Z,6.45
2022-11-30T06:42:52.248Z,6.40
2022-11-30T06:45:38.933Z,6.57
2022-11-30T06:48:24.837Z,6.90
2022-11-30T06:51:11.072Z,6.03
2022-11-30T06:53:56.637Z,7.00
2022-11-30T06:56:42.135Z,6.50
2022-11-30T06:59:27.592Z,7.15
2022-11-30T07:02:18.308Z,7.32
2022-11-30T07:05:04.733Z,6.30
2022-11-30T07:07:50.944Z,7.20
2022-11-30T07:10:41.237Z,6.07
2022-11-30T07:13:27.181Z,5.70
2022-11-30T07:16:12.774Z,6.82
2022-11-30T07:18:58.387Z,6.38
2022-11-30T07:21:44.250Z,6.35
2022-11-30T07:24:49.483Z,6.30
2022-11-30T07:27:35.334Z,6.22
2022-11-30T07:30:20.985Z,5.85
2022-11-30T07:33:07.884Z,6.40
2022-11-30T07:35:54.592Z,6.13
2022-11-30T07:38:40.518Z,6.00
2022-11-30T07:41:26.350Z,7.28
2022-11-30T07:44:12.548Z,5.93
2022-11-30T07:46:58.393Z,5.70
2022-11-30T07:49:43.934Z,6.30
2022-11-30T07:52:30.592Z,6.07
2022-11-30T07:55:16.259Z,6.97
2022-11-30T07:58:01.698Z,6.90
2022-11-30T08:00:47.376Z,7.07
2022-11-30T08:03:36.791Z,6.80
2022-11-30T08:09:17.808Z,9.73
2022-11-30T08:12:05.362Z,10.77
2022-11-30T08:15:18.722Z,13.20
2022-11-30T08:18:00.169Z,13.13
2022-11-30T08:20:50.166Z,12.32
2022-11-30T08:23:41.053Z,11.27
2022-11-30T08:26:30.155Z,9.50
2022-11-30T08:29:15.861Z,8.52
2022-11-30T08:32:01.393Z,8.65
2022-11-30T08:34:47.246Z,9.05
2022-11-30T08:37:36.750Z,9.77
2022-11-30T08:40:22.619Z,12.98
2022-11-30T08:43:08.147Z,12.85
2022-11-30T08:45:54.502Z,11.48
2022-11-30T08:48:42.757Z,9.43
2022-11-30T08:51:37.734Z,9.93
2022-11-30T08:54:32.997Z,8.70
2022-11-30T08:57:20.752Z,10.30
2022-11-30T09:00:06.871Z,10.60
2022-11-30T09:02:52.837Z,9.48
2022-11-30T09:05:38.330Z,9.32
2022-11-30T09:08:23.764Z,9.73
2022-11-30T09:11:33.465Z,9.18
2022-11-30T09:14:18.913Z,9.68
2022-11-30T09:17:05.071Z,9.95
2022-11-30T09:19:50.802Z,9.23
2022-11-30T09:22:36.504Z,9.80
2022-11-30T09:25:22.252Z,10.60
2022-11-30T09:28:12.128Z,11.00
2022-11-30T09:31:10.761Z,10.30
2022-11-30T09:33:57.881Z,10.68
2022-11-30T09:36:43.531Z,9.48
2022-11-30T09:39:28.976Z,8.52
2022-11-30T09:42:29.376Z,8.52
2022-11-30T09:45:28.810Z,7.32
2022-11-30T09:48:24.086Z,7.80
2022-11-30T09:51:19.128Z,6.60
2022-11-30T09:54:09.831Z,6.28
2022-11-30T09:56:55.055Z,5.85
2022-11-30T09:59:47.968Z,5.15
2022-11-30T10:02:38.726Z,4.70
2022-11-30T10:05:47.644Z,4.47
2022-11-30T10:08:36.133Z,4.15
2022-11-30T10:11:37.220Z,4.03
2022-11-30T10:14:29.239Z,4.03
2022-11-30T10:17:39.853Z,3.22
2022-11-30T10:20:38.026Z,3.60
2022-11-30T10:23:35.472Z,3.85
2022-11-30T10:26:34.488Z,3.72
2022-11-30T10:29:27.212Z,4.03
2022-11-30T10:32:24.851Z,3.95
2022-11-30T10:35:29.756Z,4.00
2022-11-30T10:38:42.303Z,4.03
2022-11-30T10:42:01.427Z,3.78
2022-11-30T10:45:03.711Z,4.22
2022-11-30T10:47:57.769Z,4.72
2022-11-30T10:50:43.158Z,4.38
2022-11-30T10:53:28.836Z,4.13
2022-11-30T10:56:15.362Z,4.47
2022-11-30T10:59:04.455Z,3.85
2022-11-30T11:01:50.547Z,4.00
2022-11-30T11:04:36.222Z,3.95
2022-11-30T11:07:21.842Z,4.28
2022-11-30T11:10:16.475Z,4.05
2022-11-30T11:13:02.437Z,3.83
2022-11-30T11:15:58.440Z,4.07
2022-11-30T11:18:55.828Z,4.15
2022-11-30T11:21:48.934Z,3.58
2022-11-30T11:24:35.050Z,3.90
2022-11-30T11:27:26.053Z,3.97
2022-11-30T11:30:32.938Z,4.30
2022-11-30T11:33:22.921Z,4.15
2022-11-30T11:36:08.399Z,4.05
2022-11-30T11:38:54.135Z,4.82
2022-11-30T11:41:39.801Z,4.45
2022-11-30T11:44:27.972Z,4.50
2022-11-30T11:47:27.798Z,4.07
2022-11-30T11:50:13.561Z,4.18
2022-11-30T11:53:24.656Z,4.60
2022-11-30T11:56:10.522Z,4.47
2022-11-30T11:59:00.673Z,4.07
2022-11-30T12:01:49.338Z,4.20
2022-11-30T12:04:48.705Z,4.20
2022-11-30T12:08:09.813Z,4.00
2022-11-30T12:10:57.347Z,4.13
2022-11-30T12:13:45.019Z,4.68
2022-11-30T12:16:37.472Z,4.22
2022-11-30T12:19:50.906Z,4.07
2022-11-30T12:22:58.413Z,4.20
2022-11-30T12:26:04.588Z,4.43
2022-11-30T12:29:00.127Z,3.40
2022-11-30T12:32:10.711Z,3.47
2022-11-30T12:35:14.719Z,4.47
2022-11-30T12:38:33.749Z,3.95
2022-11-30T12:41:29.999Z,3.55
2022-11-30T12:44:28.926Z,3.92
2022-11-30T12:47:45.694Z,3.28
2022-11-30T12:50:34.302Z,3.33
2022-11-30T12:53:48.548Z,2.92
2022-11-30T12:56:54.058Z,2.88
2022-11-30T12:59:50.914Z,2.70
2022-11-30T13:02:55.616Z,3.90
2022-11-30T13:05:48.948Z,4.90
2022-11-30T13:08:51.255Z,4.75
2022-11-30T13:11:40.168Z,4.75
2022-11-30T13:14:28.187Z,5.57
2022-11-30T13:17:18.117Z,4.13
2022-11-30T13:20:08.450Z,3.70
2022-11-30T13:23:23.789Z,4.15
2022-11-30T13:26:42.782Z,3.83
2022-11-30T13:29:46.664Z,3.53
2022-11-30T13:32:57.492Z,3.78
2022-11-30T13:35:40.632Z,3.13
2022-11-30T13:38:36.838Z,4.50
2022-11-30T13:41:23.178Z,4.35
2022-11-30T13:44:32.190Z,3.80
2022-11-30T13:47:26.487Z,4.20
2022-11-30T13:50:39.267Z,3.90
2022-11-30T13:53:27.581Z,3.92
2022-11-30T13:56:19.260Z,4.05
2022-11-30T13:59:23.369Z,5.20
2022-11-30T14:02:31.291Z,5.18
2022-11-30T14:05:16.661Z,5.30
2022-11-30T14:08:02.251Z,4.78
2022-11-30T14:10:55.516Z,5.40
2022-11-30T14:13:42.072Z,5.32
2022-11-30T14:16:30.047Z,5.10
2022-11-30T14:19:15.687Z,4.85
2022-11-30T14:22:02.893Z,4.88
2022-11-30T14:24:49.592Z,3.97
2022-11-30T14:27:36.634Z,3.40
2022-11-30T14:30:24.200Z,2.97
2022-11-30T14:33:27.209Z,3.13
2022-11-30T14:36:13.089Z,3.30
2022-11-30T14:39:00.082Z,3.10
2022-11-30T14:41:45.737Z,3.50
2022-11-30T14:44:40.760Z,3.22
2022-11-30T14:47:28.082Z,2.95
2022-11-30T14:50:23.058Z,3.13
2022-11-30T14:53:34.260Z,3.30
2022-11-30T14:56:36.857Z,3.35
2022-11-30T14:59:30.252Z,3.70
2022-11-30T15:02:27.533Z,2.90
2022-11-30T15:05:24.186Z,3.35
2022-11-30T15:08:14.880Z,3.00
2022-11-30T15:11:06.368Z,3.00
2022-11-30T15:13:56.882Z,2.67
2022-11-30T15:16:57.309Z,2.88
2022-11-30T15:19:47.923Z,2.75
2022-11-30T15:22:35.235Z,3.20
2022-11-30T15:25:25.587Z,3.38
2022-11-30T15:31:03.307Z,2.95
2022-11-30T15:33:51.153Z,3.03
2022-11-30T15:36:40.735Z,2.97
2022-11-30T15:39:29.443Z,2.78
2022-11-30T15:42:40.495Z,3.03
2022-11-30T15:45:30.720Z,2.97
2022-11-30T15:51:24.480Z,2.83
2022-11-30T15:54:10.383Z,2.47
2022-11-30T15:56:58.551Z,2.85
2022-11-30T16:00:02.484Z,2.63
2022-11-30T16:03:08.610Z,2.97
2022-11-30T16:05:59.277Z,2.67
2022-11-30T16:08:47.556Z,2.72
2022-11-30T16:11:34.622Z,2.65
2022-11-30T16:14:20.673Z,2.35
2022-11-30T16:17:09.073Z,2.38
2022-11-30T16:19:54.847Z,2.40
2022-11-30T16:22:43.552Z,2.50
2022-11-30T16:25:29.845Z,2.20
2022-11-30T16:28:16.726Z,2.30
2022-11-30T16:31:04.100Z,2.00
2022-11-30T16:33:50.645Z,1.73
2022-11-30T16:36:38.521Z,2.03
2022-11-30T16:39:24.447Z,1.80
2022-11-30T16:42:12.850Z,2.28
2022-11-30T16:44:59.200Z,2.00
2022-11-30T16:47:46.057Z,1.70
2022-11-30T16:50:34.751Z,2.08
2022-11-30T16:53:28.463Z,2.13
2022-11-30T16:56:18.590Z,2.08
2022-11-30T16:59:04.063Z,1.88
2022-11-30T17:01:53.458Z,2.20
2022-11-30T17:04:41.224Z,2.25
2022-11-30T17:07:32.142Z,2.00
2022-11-30T17:10:20.105Z,2.20
2022-11-30T17:13:09.868Z,1.98
2022-11-30T17:15:57.021Z,2.20
2022-11-30T17:18:45.191Z,1.90
2022-11-30T17:21:33.354Z,2.00
2022-11-30T17:24:18.909Z,1.80
2022-11-30T17:27:08.693Z,2.35
2022-11-30T17:29:54.296Z,2.15
2022-11-30T17:32:41.376Z,2.25
2022-11-30T17:38:16.097Z,2.17
2022-11-30T17:41:14.231Z,2.38
2022-11-30T17:44:04.940Z,2.45
2022-11-30T17:46:50.519Z,2.47
2022-11-30T17:49:36.337Z,2.30
2022-11-30T17:52:22.022Z,2.53
2022-11-30T17:55:08.526Z,2.60
2022-11-30T17:57:54.622Z,2.55
2022-11-30T18:00:40.901Z,2.90
2022-11-30T18:03:27.843Z,2.90
2022-11-30T18:06:15.320Z,2.63
2022-11-30T18:09:00.660Z,2.50
2022-11-30T18:11:46.857Z,2.90
2022-11-30T18:14:32.622Z,3.42
2022-11-30T18:17:21.370Z,4.35
2022-11-30T18:20:09.102Z,3.50
2022-11-30T18:22:55.740Z,4.05
2022-11-30T18:25:43.229Z,4.13
2022-11-30T18:28:29.712Z,4.22
2022-11-30T18:31:16.509Z,3.55
2022-11-30T18:34:07.648Z,3.60
2022-11-30T18:36:53.676Z,4.03
2022-11-30T18:39:41.711Z,3.75
2022-11-30T18:42:28.884Z,3.65
2022-11-30T18:45:15.304Z,3.78
2022-11-30T18:48:01.884Z,3.67
2022-11-30T18:50:49.131Z,3.45
2022-11-30T18:53:35.458Z,3.10
2022-11-30T18:56:21.930Z,4.30
2022-11-30T18:59:13.500Z,3.47
2022-11-30T19:02:00.629Z,3.42
2022-11-30T19:04:47.316Z,3.80
2022-11-30T19:07:43.898Z,3.40
2022-11-30T19:10:44.404Z,3.90
2022-11-30T19:13:31.534Z,4.00
2022-11-30T19:16:30.400Z,4.00
2022-11-30T19:19:19.412Z,4.53
2022-11-30T19:22:07.859Z,4.20
2022-11-30T19:24:53.848Z,4.82
2022-11-30T19:27:40.380Z,4.95
2022-11-30T19:30:27.046Z,4.93
2022-11-30T19:33:15.119Z,5.05
2022-11-30T19:36:06.024Z,4.90
2022-11-30T19:38:52.625Z,4.43
2022-11-30T19:41:43.817Z,4.75
2022-11-30T19:44:30.236Z,5.32
2022-11-30T19:47:15.769Z,5.05
2022-11-30T19:50:03.536Z,4.95
2022-11-30T19:52:50.614Z,4.57
2022-11-30T19:55:40.102Z,4.70
2022-11-30T19:58:30.681Z,5.15
2022-11-30T20:01:25.942Z,5.10
2022-11-30T20:04:11.502Z,5.78
2022-11-30T20:06:56.882Z,4.85
2022-11-30T20:09:43.741Z,5.57
2022-11-30T20:12:29.821Z,6.00
2022-11-30T20:15:16.295Z,5.72
2022-11-30T20:18:03.380Z,13.13
2022-11-30T20:20:48.970Z,12.18
2022-11-30T20:23:35.289Z,6.63
2022-11-30T20:26:24.853Z,6.22
2022-11-30T20:29:14.734Z,9.68
2022-11-30T20:32:01.446Z,8.25
2022-11-30T20:34:47.001Z,7.32
2022-11-30T20:37:33.086Z,5.90
2022-11-30T20:40:19.659Z,6.85
2022-11-30T20:43:05.721Z,6.53
2022-11-30T20:45:52.911Z,7.13
2022-11-30T20:48:40.648Z,5.68
2022-11-30T20:51:31.800Z,4.93
2022-11-30T20:54:19.334Z,11.02
2022-11-30T20:57:05.455Z,5.72
2022-11-30T20:59:51.750Z,5.28
2022-11-30T21:02:37.518Z,5.53
2022-11-30T21:05:23.264Z,4.47
2022-11-30T21:08:10.320Z,4.65
2022-11-30T21:10:58.211Z,4.65
2022-11-30T21:13:46.722Z,5.43
2022-11-30T21:16:32.521Z,5.05
2022-11-30T21:19:19.127Z,5.30
2022-11-30T21:22:06.114Z,5.10
2022-11-30T21:24:51.777Z,5.20
2022-11-30T21:27:37.553Z,5.18
2022-11-30T21:30:23.352Z,4.93
2022-11-30T21:33:11.533Z,5.55
2022-11-30T21:35:57.114Z,5.15
2022-11-30T21:38:43.765Z,5.50
2022-11-30T21:41:30.194Z,5.45
2022-11-30T21:44:16.556Z,6.10
2022-11-30T21:47:02.487Z,6.15
2022-11-30T21:49:47.914Z,5.03
2022-11-30T21:52:36.151Z,5.75
2022-11-30T21:55:23.063Z,5.68
2022-11-30T21:58:09.216Z,5.88
2022-11-30T22:00:56.872Z,6.00
2022-11-30T22:03:44.181Z,8.10
2022-11-30T22:06:31.434Z,5.75
2022-11-30T22:09:17.591Z,6.45
2022-11-30T22:12:04.093Z,5.03
2022-11-30T22:14:50.885Z,4.88
2022-11-30T22:17:36.998Z,5.15
2022-11-30T22:20:22.765Z,5.10
2022-11-30T22:23:08.234Z,5.05
2022-11-30T22:25:54.827Z,5.57
2022-11-30T22:28:42.833Z,5.78
2022-11-30T22:31:32.608Z,5.57
2022-11-30T22:37:04.722Z,5.68
2022-11-30T22:39:52.238Z,5.30
2022-11-30T22:42:39.026Z,5.03
2022-11-30T22:45:25.920Z,5.72
2022-11-30T22:48:11.757Z,6.18
2022-11-30T22:51:06.188Z,6.28
2022-11-30T22:53:52.919Z,6.53
2022-11-30T22:56:41.979Z,6.18
2022-11-30T22:59:27.701Z,6.35
2022-11-30T23:02:12.979Z,6.43
2022-11-30T23:04:58.927Z,7.28
2022-11-30T23:07:44.615Z,6.53
2022-11-30T23:10:31.015Z,6.65
2022-11-30T23:13:19.075Z,7.20
2022-11-30T23:16:04.980Z,6.57
2022-11-30T23:18:54.575Z,7.00
2022-11-30T23:21:44.894Z,6.88
2022-11-30T23:24:31.560Z,6.82
2022-11-30T23:27:16.993Z,7.10
2022-11-30T23:30:02.703Z,6.82
2022-11-30T23:32:48.630Z,6.90
2022-11-30T23:35:34.626Z,7.53
2022-11-30T23:38:20.469Z,6.40
2022-11-30T23:41:08.981Z,6.72
2022-11-30T23:43:55.014Z,6.53
2022-11-30T23:46:41.386Z,7.22
2022-11-30T23:49:27.069Z,7.03
2022-11-30T23:52:12.818Z,7.60
2022-11-30T23:54:58.427Z,7.97
2022-11-30T23:57:44.160Z,7.85
